createdAt,value
2022-08-22T00:00:13.447Z,8.52
2022-08-22T00:02:58.609Z,12.02
2022-08-22T00:03:02.259Z,16.48
2022-08-22T00:03:02.939Z,9.73
2022-08-22T00:03:07.176Z,11.02
2022-08-22T00:03:46.543Z,10.10
2022-08-22T00:07:16.137Z,13.10
2022-08-22T00:10:55.778Z,11.68
2022-08-22T00:14:23.765Z,8.40
2022-08-22T00:17:53.561Z,8.80
2022-08-22T00:21:21.455Z,15.57
2022-08-22T00:24:49.895Z,9.95
2022-08-22T00:31:41.151Z,14.43
2022-08-22T00:35:09.124Z,12.23
2022-08-22T00:38:37.765Z,11.55
2022-08-22T00:42:32.130Z,8.50
2022-08-22T00:46:23.621Z,11.65
2022-08-22T00:50:26.357Z,12.82
2022-08-22T00:53:54.439Z,12.80
2022-08-22T00:57:32.745Z,10.33
2022-08-22T01:00:59.591Z,13.38
2022-08-22T01:04:33.987Z,8.38
2022-08-22T01:08:16.576Z,14.45
2022-08-22T01:12:01.718Z,10.30
2022-08-22T01:15:28.887Z,11.93
2022-08-22T01:19:17.557Z,11.13
2022-08-22T01:23:27.768Z,13.85
2022-08-22T01:27:18.641Z,11.82
2022-08-22T01:30:59.229Z,9.30
2022-08-22T01:34:59.799Z,13.38
2022-08-22T01:38:43.421Z,10.15
2022-08-22T01:42:50.631Z,12.45
2022-08-22T01:46:26.079Z,11.27
2022-08-22T01:49:55.622Z,9.60
2022-08-22T01:53:26.028Z,12.55
2022-08-22T01:56:50.942Z,13.93
2022-08-22T02:00:19.820Z,8.77
2022-08-22T02:04:04.760Z,11.98
2022-08-22T02:07:40.783Z,9.63
2022-08-22T02:11:07.265Z,8.13
2022-08-22T02:14:41.655Z,8.77
2022-08-22T02:18:18.881Z,18.33
2022-08-22T02:21:47.149Z,7.60
2022-08-22T02:25:16.636Z,12.02
2022-08-22T02:28:57.086Z,11.85
2022-08-22T02:32:23.862Z,10.07
2022-08-22T02:35:53.390Z,10.48
2022-08-22T02:39:27.010Z,8.20
2022-08-22T02:43:01.347Z,12.40
2022-08-22T02:46:29.575Z,15.32
2022-08-22T02:50:01.245Z,16.48
2022-08-22T02:53:30.320Z,9.68
2022-08-22T02:56:59.001Z,14.63
2022-08-22T03:00:32.542Z,10.85
2022-08-22T03:04:21.661Z,14.30
2022-08-22T03:11:19.493Z,10.00
2022-08-22T03:14:48.626Z,8.82
2022-08-22T03:18:21.536Z,11.70
2022-08-22T03:21:49.210Z,10.70
2022-08-22T03:25:19.821Z,11.83
2022-08-22T03:28:59.176Z,11.77
2022-08-22T03:32:24.449Z,12.48
2022-08-22T03:36:03.541Z,13.27
2022-08-22T03:39:48.875Z,12.13
2022-08-22T03:43:50.982Z,9.23
2022-08-22T03:47:54.924Z,12.57
2022-08-22T03:51:35.308Z,10.65
2022-08-22T03:55:24.104Z,12.88
2022-08-22T03:59:10.230Z,17.30
2022-08-22T04:03:08.005Z,15.32
2022-08-22T04:07:31.653Z,13.93
2022-08-22T04:11:16.662Z,10.05
2022-08-22T04:15:00.663Z,8.07
2022-08-22T04:18:50.081Z,10.40
2022-08-22T04:22:34.397Z,12.93
2022-08-22T04:26:00.735Z,15.48
2022-08-22T04:29:35.149Z,11.00
2022-08-22T04:33:03.182Z,10.60
2022-08-22T04:36:29.646Z,14.13
2022-08-22T04:39:58.650Z,13.68
2022-08-22T04:46:54.071Z,11.60
2022-08-22T04:50:23.733Z,10.55
2022-08-22T04:54:03.084Z,18.83
2022-08-22T04:57:32.763Z,12.95
2022-08-22T05:01:00.638Z,10.52
2022-08-22T05:04:27.672Z,11.48
2022-08-22T05:07:53.999Z,11.23
2022-08-22T05:11:20.953Z,11.65
2022-08-22T05:14:48.428Z,14.35
2022-08-22T05:18:15.272Z,13.50
2022-08-22T05:21:41.751Z,10.57
2022-08-22T05:25:11.098Z,8.80
2022-08-22T05:28:37.456Z,15.88
2022-08-22T05:32:04.910Z,9.68
2022-08-22T05:35:34.967Z,13.60
2022-08-22T05:39:00.868Z,10.07
2022-08-22T05:42:27.779Z,9.68
2022-08-22T05:45:50.088Z,10.90
2022-08-22T05:49:19.930Z,16.08
2022-08-22T05:53:06.316Z,11.73
2022-08-22T05:56:37.921Z,11.45
2022-08-22T06:00:06.413Z,11.30
2022-08-22T06:03:35.045Z,10.18
2022-08-22T06:07:06.342Z,11.27
2022-08-22T06:10:33.317Z,11.93
2022-08-22T06:14:01.965Z,9.18
2022-08-22T06:17:28.543Z,7.78
2022-08-22T06:20:57.319Z,9.55
2022-08-22T06:24:25.136Z,7.47
2022-08-22T06:27:50.160Z,9.80
2022-08-22T06:31:18.897Z,8.65
2022-08-22T06:34:44.224Z,9.32
2022-08-22T06:38:06.156Z,9.27
2022-08-22T06:41:34.536Z,11.35
2022-08-22T06:48:23.688Z,11.05
2022-08-22T06:51:47.912Z,14.55
2022-08-22T06:55:11.308Z,10.00
2022-08-22T06:58:39.416Z,9.73
2022-08-22T07:02:05.711Z,8.77
2022-08-22T07:05:29.359Z,12.70
2022-08-22T07:08:55.153Z,7.22
2022-08-22T07:12:20.037Z,17.02
2022-08-22T07:15:44.588Z,11.63
2022-08-22T07:19:07.721Z,9.57
2022-08-22T07:22:33.167Z,9.88
2022-08-22T07:26:00.048Z,10.13
2022-08-22T07:29:34.063Z,12.30
2022-08-22T07:33:26.034Z,11.55
2022-08-22T07:36:49.108Z,12.68
2022-08-22T07:40:23.251Z,9.43
2022-08-22T07:43:49.929Z,14.25
2022-08-22T07:47:18.003Z,15.32
2022-08-22T07:51:00.617Z,14.15
2022-08-22T07:54:27.102Z,11.77
2022-08-22T07:57:55.789Z,9.00
2022-08-22T08:04:42.630Z,12.38
2022-08-22T08:08:15.530Z,10.65
2022-08-22T08:11:42.413Z,12.00
2022-08-22T08:15:07.470Z,15.57
2022-08-22T08:18:31.560Z,15.40
2022-08-22T08:21:57.307Z,14.38
2022-08-22T08:25:23.707Z,17.13
2022-08-22T08:28:49.554Z,12.43
2022-08-22T08:32:14.035Z,15.90
2022-08-22T08:35:42.698Z,15.65
2022-08-22T08:39:35.173Z,13.52
2022-08-22T08:43:29.705Z,17.42
2022-08-22T08:47:16.719Z,21.02
2022-08-22T08:50:57.853Z,19.63
2022-08-22T08:54:44.194Z,23.30
2022-08-22T08:58:37.872Z,24.77
2022-08-22T09:02:34.916Z,28.45
2022-08-22T09:06:16.809Z,21.80
2022-08-22T09:17:38.795Z,18.75
2022-08-22T09:21:39.747Z,19.95
2022-08-22T09:25:23.519Z,17.90
2022-08-22T09:28:55.225Z,15.10
2022-08-22T09:32:23.883Z,23.25
2022-08-22T09:35:55.367Z,21.48
2022-08-22T09:39:25.346Z,22.85
2022-08-22T09:40:15.454Z,16.60
2022-08-22T09:43:02.705Z,24.85
2022-08-22T09:46:36.626Z,18.40
2022-08-22T09:50:13.859Z,24.75
2022-08-22T09:54:02.497Z,25.98
2022-08-22T09:57:36.841Z,24.90
2022-08-22T10:01:03.007Z,22.77
2022-08-22T10:04:53.856Z,25.63
2022-08-22T10:08:38.296Z,30.58
2022-08-22T10:12:04.800Z,28.35
2022-08-22T10:15:41.618Z,35.65
2022-08-22T10:19:14.039Z,23.75
2022-08-22T10:22:47.524Z,18.33
2022-08-22T10:26:22.812Z,12.57
2022-08-22T10:30:02.185Z,9.02
2022-08-22T10:33:33.632Z,9.93
2022-08-22T10:37:10.317Z,10.60
2022-08-22T10:40:39.021Z,18.48
2022-08-22T10:44:11.516Z,8.85
2022-08-22T10:47:39.620Z,5.88
2022-08-22T10:51:24.946Z,6.57
2022-08-22T10:54:54.103Z,9.05
2022-08-22T10:58:24.776Z,6.53
2022-08-22T11:01:57.141Z,6.43
2022-08-22T11:05:31.274Z,7.82
2022-08-22T11:09:16.843Z,14.48
2022-08-22T11:12:45.734Z,7.40
2022-08-22T11:16:28.772Z,6.28
2022-08-22T11:20:05.353Z,6.90
2022-08-22T11:23:41.851Z,5.60
2022-08-22T11:27:14.696Z,7.13
2022-08-22T11:30:52.285Z,7.13
2022-08-22T11:34:29.251Z,4.47
2022-08-22T11:38:01.354Z,4.85
2022-08-22T11:41:29.231Z,9.20
2022-08-22T11:44:55.646Z,5.60
2022-08-22T11:48:25.126Z,3.90
2022-08-22T11:52:11.569Z,8.60
2022-08-22T11:55:38.562Z,5.03
2022-08-22T11:59:06.516Z,4.18
2022-08-22T12:06:02.629Z,4.05
2022-08-22T12:09:42.274Z,3.10
2022-08-22T12:13:10.036Z,5.40
2022-08-22T12:16:45.149Z,5.40
2022-08-22T12:20:18.981Z,3.58
2022-08-22T12:24:11.240Z,4.85
2022-08-22T12:27:56.908Z,4.53
2022-08-22T12:31:35.197Z,5.30
2022-08-22T12:35:16.312Z,5.65
2022-08-22T12:38:55.971Z,3.78
2022-08-22T12:42:40.122Z,3.47
2022-08-22T12:46:17.410Z,3.55
2022-08-22T12:50:05.001Z,4.22
2022-08-22T12:53:50.978Z,2.40
2022-08-22T12:57:24.616Z,3.45
2022-08-22T13:00:49.505Z,4.80
2022-08-22T13:04:32.555Z,4.28
2022-08-22T13:08:02.360Z,4.10
2022-08-22T13:11:26.929Z,5.22
2022-08-22T13:14:56.210Z,4.35
2022-08-22T13:18:30.254Z,2.90
2022-08-22T13:21:59.820Z,4.20
2022-08-22T13:25:26.584Z,4.25
2022-08-22T13:29:04.306Z,2.35
2022-08-22T13:32:39.567Z,2.85
2022-08-22T13:36:10.917Z,3.75
2022-08-22T13:39:36.970Z,4.82
2022-08-22T13:43:09.377Z,9.98
2022-08-22T13:46:35.465Z,7.18
2022-08-22T13:50:08.849Z,5.55
2022-08-22T13:53:41.580Z,5.65
2022-08-22T13:57:13.245Z,4.95
2022-08-22T14:01:25.616Z,5.60
2022-08-22T14:04:54.419Z,4.20
2022-08-22T14:08:22.100Z,3.50
2022-08-22T14:11:51.247Z,7.20
2022-08-22T14:15:21.108Z,7.55
2022-08-22T14:18:49.162Z,5.07
2022-08-22T14:25:39.227Z,3.83
2022-08-22T14:29:06.323Z,4.05
2022-08-22T14:32:48.360Z,3.15
2022-08-22T14:36:18.600Z,5.07
2022-08-22T14:39:46.875Z,7.07
2022-08-22T14:43:22.544Z,2.60
2022-08-22T14:46:52.469Z,3.22
2022-08-22T14:50:44.572Z,4.07
2022-08-22T14:54:13.853Z,5.90
2022-08-22T14:57:42.552Z,5.10
2022-08-22T15:01:11.549Z,3.28
2022-08-22T15:04:38.177Z,3.23
2022-08-22T15:08:01.975Z,6.75
2022-08-22T15:11:31.823Z,5.55
2022-08-22T15:14:57.476Z,4.25
2022-08-22T15:18:33.881Z,2.90
2022-08-22T15:22:13.697Z,4.72
2022-08-22T15:25:41.421Z,5.32
2022-08-22T15:29:09.234Z,5.07
2022-08-22T15:32:36.387Z,4.97
2022-08-22T15:36:15.696Z,4.15
2022-08-22T15:39:58.539Z,8.85
2022-08-22T15:43:28.914Z,6.68
2022-08-22T15:47:06.255Z,7.25
2022-08-22T15:50:38.352Z,6.70
2022-08-22T15:54:16.060Z,5.82
2022-08-22T15:58:04.725Z,5.13
2022-08-22T16:01:30.231Z,3.83
2022-08-22T16:05:03.994Z,5.38
2022-08-22T16:08:32.711Z,5.45
2022-08-22T16:11:57.877Z,18.73
2022-08-22T16:15:57.136Z,26.08
2022-08-22T16:19:24.165Z,11.68
2022-08-22T16:23:08.991Z,9.95
2022-08-22T16:26:41.184Z,6.68
2022-08-22T16:30:17.930Z,8.23
2022-08-22T16:33:43.633Z,18.77
2022-08-22T16:37:36.069Z,9.18
2022-08-22T16:40:58.634Z,7.15
2022-08-22T16:44:43.420Z,7.30
2022-08-22T16:48:18.153Z,6.45
2022-08-22T16:52:27.764Z,14.35
2022-08-22T16:56:10.236Z,44.53
2022-08-22T16:59:50.787Z,14.98
2022-08-22T17:03:21.898Z,9.32
2022-08-22T17:06:57.393Z,10.85
2022-08-22T17:10:32.593Z,5.95
2022-08-22T17:14:17.676Z,8.90
2022-08-22T17:17:57.223Z,6.70
2022-08-22T17:21:27.381Z,8.75
2022-08-22T17:25:04.531Z,7.40
2022-08-22T17:28:41.004Z,13.07
2022-08-22T17:32:16.508Z,17.35
2022-08-22T17:35:50.364Z,17.52
2022-08-22T17:39:24.038Z,10.07
2022-08-22T17:42:59.755Z,9.75
2022-08-22T17:46:34.908Z,7.53
2022-08-22T17:50:04.511Z,9.50
2022-08-22T17:53:37.525Z,9.13
2022-08-22T17:57:05.697Z,12.02
2022-08-22T18:00:32.641Z,11.23
2022-08-22T18:04:00.706Z,9.38
2022-08-22T18:07:57.830Z,8.88
2022-08-22T18:11:26.825Z,7.07
2022-08-22T18:14:55.180Z,9.65
2022-08-22T18:18:30.344Z,11.18
2022-08-22T18:21:57.470Z,9.43
2022-08-22T18:25:37.978Z,9.82
2022-08-22T18:29:17.537Z,7.40
2022-08-22T18:32:47.263Z,10.23
2022-08-22T18:36:15.696Z,8.05
2022-08-22T18:39:50.332Z,8.80
2022-08-22T18:43:24.142Z,9.70
2022-08-22T18:46:51.608Z,12.13
2022-08-22T18:50:31.929Z,7.82
2022-08-22T18:53:56.313Z,8.57
2022-08-22T18:57:40.317Z,8.55
2022-08-22T19:01:18.399Z,7.25
2022-08-22T19:04:56.433Z,10.65
2022-08-22T19:08:44.300Z,6.60
2022-08-22T19:12:20.714Z,10.30
2022-08-22T19:15:56.125Z,11.10
2022-08-22T19:19:23.157Z,11.48
2022-08-22T19:22:45.528Z,9.60
2022-08-22T19:26:25.891Z,14.40
2022-08-22T19:29:57.956Z,8.35
2022-08-22T19:33:27.663Z,20.33
2022-08-22T19:37:32.928Z,19.90
2022-08-22T19:40:58.346Z,9.57
2022-08-22T19:44:40.673Z,12.73
2022-08-22T19:48:14.244Z,13.77
2022-08-22T19:51:36.776Z,8.82
2022-08-22T19:55:22.756Z,8.73
2022-08-22T19:58:56.105Z,15.43
2022-08-22T20:02:35.338Z,33.83
2022-08-22T20:06:05.923Z,33.15
2022-08-22T20:09:42.372Z,40.33
2022-08-22T20:13:12.058Z,37.13
2022-08-22T20:17:03.193Z,33.15
2022-08-22T20:20:36.106Z,23.98
2022-08-22T20:23:58.334Z,19.77
2022-08-22T20:27:24.753Z,21.05
2022-08-22T20:30:51.072Z,21.30
2022-08-22T20:34:17.797Z,18.23
2022-08-22T20:38:05.830Z,19.58
2022-08-22T20:41:28.982Z,12.60
2022-08-22T20:44:55.126Z,14.35
2022-08-22T20:48:18.736Z,18.77
2022-08-22T20:51:52.259Z,14.50
2022-08-22T20:55:17.596Z,20.92
2022-08-22T20:58:47.132Z,17.92
2022-08-22T21:02:16.372Z,22.20
2022-08-22T21:05:42.473Z,16.20
2022-08-22T21:09:31.012Z,23.83
2022-08-22T21:16:31.949Z,33.45
2022-08-22T21:19:54.346Z,35.67
2022-08-22T21:23:21.475Z,44.75
2022-08-22T21:26:50.636Z,47.90
2022-08-22T21:30:21.967Z,47.75
2022-08-22T21:33:48.307Z,49.22
2022-08-22T21:37:15.349Z,41.05
2022-08-22T21:40:39.903Z,30.38
2022-08-22T21:44:20.602Z,32.35
2022-08-22T21:47:43.954Z,38.05
2022-08-22T21:51:29.549Z,30.40
2022-08-22T21:54:51.527Z,30.23
2022-08-22T21:58:36.614Z,33.85
2022-08-22T22:02:29.798Z,25.63
2022-08-22T22:05:55.015Z,23.08
2022-08-22T22:09:16.869Z,28.45
2022-08-22T22:12:41.096Z,22.17
2022-08-22T22:16:04.808Z,24.45
2022-08-22T22:19:26.962Z,22.17
2022-08-22T22:22:49.124Z,20.13
2022-08-22T22:26:11.621Z,20.88
2022-08-22T22:29:34.459Z,18.70
2022-08-22T22:32:57.719Z,21.73
2022-08-22T22:36:24.909Z,19.55
2022-08-22T22:39:46.765Z,19.55
2022-08-22T22:43:08.752Z,14.63
2022-08-22T22:46:31.073Z,17.60
2022-08-22T22:49:55.763Z,13.60
2022-08-22T22:53:38.443Z,11.63
2022-08-22T22:57:01.146Z,10.68
2022-08-22T23:00:23.107Z,14.98
2022-08-22T23:03:55.300Z,11.53
2022-08-22T23:07:19.646Z,11.80
2022-08-22T23:10:41.837Z,13.73
2022-08-22T23:14:03.793Z,12.57
2022-08-22T23:17:25.690Z,14.55
2022-08-22T23:20:47.615Z,10.27
2022-08-22T23:24:11.632Z,14.48
2022-08-22T23:27:34.064Z,11.77
2022-08-22T23:30:56.015Z,12.90
2022-08-22T23:34:22.928Z,19.42
2022-08-22T23:37:45.168Z,9.50
2022-08-22T23:41:12.052Z,9.35
2022-08-22T23:44:36.189Z,12.73
2022-08-22T23:47:57.828Z,13.13
2022-08-22T23:51:23.229Z,11.13
2022-08-22T23:54:45.407Z,14.70
2022-08-22T23:58:08.897Z,12.27
